Time;durP1;ratioP1;P1;durP2;ratioP2;P2;SDS_P1;SDS_P2;PMS_P1;PMS_P2;Temp;Humidity;BMP_temperature;BMP_pressure;BME280_temperature;BME280_humidity;BME280_pressure;Samples;Min_cycle;Max_cycle;Signal;HPM_P1;HPM_P2
2022/10/08 06:37:36;;;;;;;6.85;3.30;;;;;;;;;;11686911;23;24880184;-85
2022/10/08 06:43:06;;;;;;;5.18;2.70;;;;;;;;;;12738953;23;20038;-85
2022/10/08 06:48:15;;;;;;;4.25;2.10;;;;;;;;;;12767815;23;20010;-85
2022/10/08 06:53:27;;;;;;;3.60;2.42;;;;;;;;;;12734749;23;20005;-85
2022/10/08 06:58:29;;;;;;;5.18;2.50;;;;;;;;;;12762969;23;20481;-84
2022/10/08 07:03:31;;;;;;;3.25;2.00;;;;;;;;;;12770278;23;20005;-86
2022/10/08 07:08:51;;;;;;;4.00;2.10;;;;;;;;;;12756276;23;20010;-81
2022/10/08 07:14:03;;;;;;;6.55;2.20;;;;;;;;;;12752929;23;20005;-84
2022/10/08 07:30:42;;;;;;;4.32;2.60;;;;;;;;;;12747211;23;20064;-78
2022/10/08 07:35:43;;;;;;;6.35;3.13;;;;;;;;;;12794839;23;20005;-79
2022/10/08 07:40:47;;;;;;;6.47;4.35;;;;;;;;;;12795491;23;20005;-82
2022/10/08 07:45:49;;;;;;;5.20;3.35;;;;;;;;;;12798244;23;20500;-81
2022/10/08 07:50:53;;;;;;;5.65;3.70;;;;;;;;;;12795774;23;20001;-82
2022/10/08 07:56:15;;;;;;;7.80;4.57;;;;;;;;;;12797159;23;20029;-83
2022/10/08 08:01:20;;;;;;;9.77;6.88;;;;;;;;;;12791075;23;20009;-81
2022/10/08 08:06:24;;;;;;;7.80;5.72;;;;;;;;;;12791213;23;20005;-82
2022/10/08 08:11:25;;;;;;;8.25;5.30;;;;;;;;;;12791154;23;20001;-81
2022/10/08 08:16:29;;;;;;;8.52;5.60;;;;;;;;;;12816848;23;20007;-81
2022/10/08 08:21:31;;;;;;;9.00;4.93;;;;;;;;;;12786952;23;20005;-81
2022/10/08 08:26:34;;;;;;;6.25;4.82;;;;;;;;;;12793098;23;20429;-80
2022/10/08 08:31:38;;;;;;;6.82;4.80;;;;;;;;;;12797036;23;20008;-82
2022/10/08 08:36:43;;;;;;;6.80;4.68;;;;;;;;;;12818093;23;19997;-82
2022/10/08 08:41:55;;;;;;;8.63;5.20;;;;;;;;;;12790384;23;20327;-82
2022/10/08 08:47:01;;;;;;;8.13;5.50;;;;;;;;;;12790101;23;20019;-81
2022/10/08 08:52:03;;;;;;;7.78;5.60;;;;;;;;;;12788926;23;20003;-81
2022/10/08 08:57:26;;;;;;;9.88;5.75;;;;;;;;;;12790250;23;20001;-81
2022/10/08 09:02:29;;;;;;;11.40;6.70;;;;;;;;;;12788208;23;20437;-82
2022/10/08 09:07:44;;;;;;;7.18;4.90;;;;;;;;;;12790530;23;20024;-82
2022/10/08 09:13:01;;;;;;;9.43;5.72;;;;;;;;;;12817222;23;19997;-82
2022/10/08 09:18:03;;;;;;;11.05;8.25;;;;;;;;;;12788002;23;20068;-82
2022/10/08 09:23:15;;;;;;;8.98;6.18;;;;;;;;;;12795191;23;20005;-83
2022/10/08 09:28:37;;;;;;;8.13;5.10;;;;;;;;;;12793579;23;20357;-82
2022/10/08 09:33:38;;;;;;;8.40;5.40;;;;;;;;;;12802816;23;19993;-82
2022/10/08 09:38:59;;;;;;;9.32;5.13;;;;;;;;;;12829177;23;19997;-82
2022/10/08 09:44:09;;;;;;;6.75;4.38;;;;;;;;;;12827738;23;20045;-81
2022/10/08 09:49:39;;;;;;;10.07;6.18;;;;;;;;;;12801047;23;20035;-82
2022/10/08 09:54:54;;;;;;;8.00;5.20;;;;;;;;;;12785651;23;20016;-83
2022/10/08 10:00:10;;;;;;;7.80;4.70;;;;;;;;;;12788328;23;20076;-82
2022/10/08 10:05:49;;;;;;;6.68;4.05;;;;;;;;;;12786005;23;20012;-81
2022/10/08 10:10:53;;;;;;;7.43;4.20;;;;;;;;;;12600661;23;20007;-82
2022/10/08 10:16:34;;;;;;;;;;;;;;;;;;;;;
2022/10/08 10:22:08;;;;;;;5.53;2.90;;;;;;;;;;12597217;23;20029;-80
2022/10/08 10:33:19;;;;;;;14.75;9.80;;;;;;;;;;12823684;23;20076;-83
2022/10/08 10:38:28;;;;;;;4.55;3.50;;;;;;;;;;12789077;23;20005;-83
2022/10/08 10:43:37;;;;;;;6.00;2.72;;;;;;;;;;12794526;23;20007;-82
2022/10/08 10:48:38;;;;;;;5.25;2.80;;;;;;;;;;12792535;23;20477;-83
2022/10/08 10:53:55;;;;;;;;;;;;;;;;;;;;;
2022/10/08 10:59:45;;;;;;;5.93;2.58;;;;;;;;;;12825677;23;20083;-80
2022/10/08 11:05:10;;;;;;;3.63;1.95;;;;;;;;;;12701339;23;20022;-82
2022/10/08 11:21:17;;;;;;;3.30;1.70;;;;;;;;;;12814036;23;20104;-82
2022/10/08 11:26:43;;;;;;;4.82;2.92;;;;;;;;;;12757970;23;20009;-82
2022/10/08 11:38:06;;;;;;;5.05;2.00;;;;;;;;;;12681957;23;20012;-81
2022/10/08 11:43:13;;;;;;;4.75;2.17;;;;;;;;;;12739403;23;20010;-81
2022/10/08 11:48:34;;;;;;;3.60;1.67;;;;;;;;;;12740163;23;20017;-78
2022/10/08 11:53:35;;;;;;;5.53;1.70;;;;;;;;;;12773159;23;20002;-81
2022/10/08 12:10:29;;;;;;;3.45;0.90;;;;;;;;;;12764325;23;20382;-85
